sensor_id;sensor_type;location;lat;lon;timestamp;pressure;altitude;pressure_sealevel;temperature
64960;BMP180;51487;52.266;10.542;2023-01-29T00:01:08;98272.00;;;-0.60
64960;BMP180;51487;52.266;10.542;2023-01-29T00:03:34;99154.00;;;-0.70
64960;BMP180;51487;52.266;10.542;2023-01-29T00:06:04;100465.00;;;-0.50
64960;BMP180;51487;52.266;10.542;2023-01-29T00:08:35;100385.00;;;-0.50
64960;BMP180;51487;52.266;10.542;2023-01-29T00:11:05;100844.00;;;-0.50
64960;BMP180;51487;52.266;10.542;2023-01-29T00:13:32;100118.00;;;-0.60
64960;BMP180;51487;52.266;10.542;2023-01-29T00:16:02;99809.00;;;-0.50
64960;BMP180;51487;52.266;10.542;2023-01-29T00:18:28;99271.00;;;-0.60
64960;BMP180;51487;52.266;10.542;2023-01-29T00:20:54;68851.00;;;-0.30
64960;BMP180;51487;52.266;10.542;2023-01-29T00:23:20;68813.00;;;-0.50
64960;BMP180;51487;52.266;10.542;2023-01-29T00:25:47;68849.00;;;-0.40
64960;BMP180;51487;52.266;10.542;2023-01-29T00:28:14;68802.00;;;-0.60
64960;BMP180;51487;52.266;10.542;2023-01-29T00:30:39;68813.00;;;-0.50
64960;BMP180;51487;52.266;10.542;2023-01-29T00:33:06;68806.00;;;-0.60
64960;BMP180;51487;52.266;10.542;2023-01-29T00:35:32;68806.00;;;-0.50
64960;BMP180;51487;52.266;10.542;2023-01-29T00:37:58;68802.00;;;-0.60
64960;BMP180;51487;52.266;10.542;2023-01-29T00:40:24;68829.00;;;-0.50
64960;BMP180;51487;52.266;10.542;2023-01-29T00:42:51;68819.00;;;-0.50
64960;BMP180;51487;52.266;10.542;2023-01-29T00:45:35;159492.00;;;-82.70
64960;BMP180;51487;52.266;10.542;2023-01-29T00:48:02;68790.00;;;-0.60
64960;BMP180;51487;52.266;10.542;2023-01-29T00:50:29;68802.00;;;-0.60
64960;BMP180;51487;52.266;10.542;2023-01-29T00:52:54;68783.00;;;-0.60
64960;BMP180;51487;52.266;10.542;2023-01-29T00:55:20;68758.00;;;-0.80
64960;BMP180;51487;52.266;10.542;2023-01-29T00:57:46;68739.00;;;-0.90
64960;BMP180;51487;52.266;10.542;2023-01-29T01:00:15;68720.00;;;-1.00
64960;BMP180;51487;52.266;10.542;2023-01-29T01:02:43;159312.00;;;-82.70
64960;BMP180;51487;52.266;10.542;2023-01-29T01:05:27;68712.00;;;-1.00
64960;BMP180;51487;52.266;10.542;2023-01-29T01:07:55;68703.00;;;-1.00
64960;BMP180;51487;52.266;10.542;2023-01-29T01:10:31;68703.00;;;-1.10
64960;BMP180;51487;52.266;10.542;2023-01-29T01:13:01;68703.00;;;-1.00
64960;BMP180;51487;52.266;10.542;2023-01-29T01:15:32;68703.00;;;-1.10
64960;BMP180;51487;52.266;10.542;2023-01-29T01:18:00;159284.00;;;-82.70
64960;BMP180;51487;52.266;10.542;2023-01-29T01:20:30;159312.00;;;-82.70
64960;BMP180;51487;52.266;10.542;2023-01-29T01:22:57;159296.00;;;-82.70
64960;BMP180;51487;52.266;10.542;2023-01-29T01:25:25;159290.00;;;-82.70
64960;BMP180;51487;52.266;10.542;2023-01-29T01:27:55;159331.00;;;-82.70
64960;BMP180;51487;52.266;10.542;2023-01-29T01:30:22;159341.00;;;-82.40
64960;BMP180;51487;52.266;10.542;2023-01-29T01:32:49;159373.00;;;-82.70
64960;BMP180;51487;52.266;10.542;2023-01-29T01:35:15;159383.00;;;-82.70
64960;BMP180;51487;52.266;10.542;2023-01-29T01:37:41;159413.00;;;-82.70
64960;BMP180;51487;52.266;10.542;2023-01-29T01:40:15;212005.00;;;-82.70
64960;BMP180;51487;52.266;10.542;2023-01-29T01:42:44;212045.00;;;-82.70
64960;BMP180;51487;52.266;10.542;2023-01-29T01:45:21;159445.00;;;-82.70
64960;BMP180;51487;52.266;10.542;2023-01-29T01:47:50;68819.00;;;-0.50
64960;BMP180;51487;52.266;10.542;2023-01-29T01:53:00;159451.00;;;-82.70
64960;BMP180;51487;52.266;10.542;2023-01-29T01:55:33;212078.00;;;-82.70
64960;BMP180;51487;52.266;10.542;2023-01-29T01:58:06;159431.00;;;-82.70
64960;BMP180;51487;52.266;10.542;2023-01-29T02:00:43;159405.00;;;-82.70
64960;BMP180;51487;52.266;10.542;2023-01-29T02:03:09;159441.00;;;-82.70
64960;BMP180;51487;52.266;10.542;2023-01-29T02:05:56;159451.00;;;-82.70
64960;BMP180;51487;52.266;10.542;2023-01-29T02:09:05;212072.00;;;-82.70
64960;BMP180;51487;52.266;10.542;2023-01-29T02:11:54;159480.00;;;-82.40
64960;BMP180;51487;52.266;10.542;2023-01-29T02:14:20;212132.00;;;-82.70
64960;BMP180;51487;52.266;10.542;2023-01-29T02:16:46;212098.00;;;-82.70
64960;BMP180;51487;52.266;10.542;2023-01-29T02:19:46;125759.00;;;209.30
64960;BMP180;51487;52.266;10.542;2023-01-29T02:31:43;125759.00;;;209.30
64960;BMP180;51487;52.266;10.542;2023-01-29T02:34:55;125759.00;;;209.30
64960;BMP180;51487;52.266;10.542;2023-01-29T02:38:17;125759.00;;;209.30
64960;BMP180;51487;52.266;10.542;2023-01-29T02:41:02;125759.00;;;209.30
64960;BMP180;51487;52.266;10.542;2023-01-29T02:46:44;125759.00;;;209.30
64960;BMP180;51487;52.266;10.542;2023-01-29T02:49:23;125759.00;;;209.30
64960;BMP180;51487;52.266;10.542;2023-01-29T02:51:59;125759.00;;;209.30
64960;BMP180;51487;52.266;10.542;2023-01-29T02:54:38;125759.00;;;209.30
64960;BMP180;51487;52.266;10.542;2023-01-29T02:57:31;125759.00;;;209.30
64960;BMP180;51487;52.266;10.542;2023-01-29T03:00:04;125759.00;;;209.30
64960;BMP180;51487;52.266;10.542;2023-01-29T03:02:54;125759.00;;;209.30
64960;BMP180;51487;52.266;10.542;2023-01-29T03:08:05;125759.00;;;209.30
64960;BMP180;51487;52.266;10.542;2023-01-29T03:10:39;125759.00;;;209.30
64960;BMP180;51487;52.266;10.542;2023-01-29T03:13:15;125759.00;;;209.30
64960;BMP180;51487;52.266;10.542;2023-01-29T03:15:48;125759.00;;;209.30
64960;BMP180;51487;52.266;10.542;2023-01-29T03:18:29;125759.00;;;209.30
64960;BMP180;51487;52.266;10.542;2023-01-29T03:21:03;125759.00;;;209.30
64960;BMP180;51487;52.266;10.542;2023-01-29T03:23:56;125759.00;;;209.30
64960;BMP180;51487;52.266;10.542;2023-01-29T03:26:43;125759.00;;;209.30
64960;BMP180;51487;52.266;10.542;2023-01-29T03:29:34;125759.00;;;209.30
64960;BMP180;51487;52.266;10.542;2023-01-29T03:32:22;125759.00;;;209.30
64960;BMP180;51487;52.266;10.542;2023-01-29T03:34:53;125759.00;;;209.30
64960;BMP180;51487;52.266;10.542;2023-01-29T03:37:29;125759.00;;;209.30
64960;BMP180;51487;52.266;10.542;2023-01-29T03:40:01;125759.00;;;209.30
64960;BMP180;51487;52.266;10.542;2023-01-29T03:45:38;125759.00;;;209.30
64960;BMP180;51487;52.266;10.542;2023-01-29T03:48:16;125759.00;;;209.30
64960;BMP180;51487;52.266;10.542;2023-01-29T03:51:13;125759.00;;;209.30
64960;BMP180;51487;52.266;10.542;2023-01-29T03:53:42;125759.00;;;209.30
64960;BMP180;51487;52.266;10.542;2023-01-29T04:01:44;125759.00;;;209.30
64960;BMP180;51487;52.266;10.542;2023-01-29T04:04:23;125759.00;;;209.30
64960;BMP180;51487;52.266;10.542;2023-01-29T04:06:54;125759.00;;;209.30
64960;BMP180;51487;52.266;10.542;2023-01-29T04:12:24;125759.00;;;209.30
64960;BMP180;51487;52.266;10.542;2023-01-29T04:14:54;125759.00;;;209.30
64960;BMP180;51487;52.266;10.542;2023-01-29T04:17:33;125759.00;;;209.30
64960;BMP180;51487;52.266;10.542;2023-01-29T04:20:03;125759.00;;;209.30
64960;BMP180;51487;52.266;10.542;2023-01-29T04:22:35;125759.00;;;209.30
64960;BMP180;51487;52.266;10.542;2023-01-29T04:25:07;125759.00;;;209.30
64960;BMP180;51487;52.266;10.542;2023-01-29T04:27:52;231480.00;;;209.30
64960;BMP180;51487;52.266;10.542;2023-01-29T04:31:05;125759.00;;;209.30
64960;BMP180;51487;52.266;10.542;2023-01-29T04:36:23;125759.00;;;209.30
64960;BMP180;51487;52.266;10.542;2023-01-29T04:39:23;125759.00;;;209.30
64960;BMP180;51487;52.266;10.542;2023-01-29T04:42:07;125759.00;;;209.30
64960;BMP180;51487;52.266;10.542;2023-01-29T04:44:49;125759.00;;;209.30
64960;BMP180;51487;52.266;10.542;2023-01-29T04:47:36;125759.00;;;209.30
64960;BMP180;51487;52.266;10.542;2023-01-29T04:50:28;125759.00;;;209.30
64960;BMP180;51487;52.266;10.542;2023-01-29T04:53:03;125759.00;;;209.30
64960;BMP180;51487;52.266;10.542;2023-01-29T04:55:48;125759.00;;;209.30
64960;BMP180;51487;52.266;10.542;2023-01-29T04:58:34;125759.00;;;209.30
64960;BMP180;51487;52.266;10.542;2023-01-29T05:01:06;125759.00;;;209.30
64960;BMP180;51487;52.266;10.542;2023-01-29T05:03:36;125759.00;;;209.30
64960;BMP180;51487;52.266;10.542;2023-01-29T05:06:06;125759.00;;;209.30
64960;BMP180;51487;52.266;10.542;2023-01-29T05:08:35;125759.00;;;209.30
64960;BMP180;51487;52.266;10.542;2023-01-29T05:11:03;125759.00;;;209.30
64960;BMP180;51487;52.266;10.542;2023-01-29T05:13:30;125759.00;;;209.30
64960;BMP180;51487;52.266;10.542;2023-01-29T05:16:10;125759.00;;;209.30
64960;BMP180;51487;52.266;10.542;2023-01-29T05:18:38;125759.00;;;209.30
64960;BMP180;51487;52.266;10.542;2023-01-29T05:21:06;125759.00;;;209.30
64960;BMP180;51487;52.266;10.542;2023-01-29T05:23:33;231480.00;;;209.30
64960;BMP180;51487;52.266;10.542;2023-01-29T05:25:59;231480.00;;;209.30
64960;BMP180;51487;52.266;10.542;2023-01-29T05:28:24;231480.00;;;209.30
64960;BMP180;51487;52.266;10.542;2023-01-29T05:30:54;231480.00;;;209.30
64960;BMP180;51487;52.266;10.542;2023-01-29T05:33:23;231480.00;;;209.30
64960;BMP180;51487;52.266;10.542;2023-01-29T05:35:50;231480.00;;;209.30
64960;BMP180;51487;52.266;10.542;2023-01-29T05:38:17;231480.00;;;209.30
64960;BMP180;51487;52.266;10.542;2023-01-29T05:40:44;231480.00;;;209.30
64960;BMP180;51487;52.266;10.542;2023-01-29T05:43:15;231480.00;;;209.30
64960;BMP180;51487;52.266;10.542;2023-01-29T05:46:00;231480.00;;;209.30
64960;BMP180;51487;52.266;10.542;2023-01-29T05:48:27;125759.00;;;209.30
64960;BMP180;51487;52.266;10.542;2023-01-29T05:50:53;231480.00;;;209.30
64960;BMP180;51487;52.266;10.542;2023-01-29T05:53:24;231480.00;;;209.30
64960;BMP180;51487;52.266;10.542;2023-01-29T05:55:50;231480.00;;;209.30
64960;BMP180;51487;52.266;10.542;2023-01-29T05:58:15;231480.00;;;209.30
64960;BMP180;51487;52.266;10.542;2023-01-29T06:00:43;231480.00;;;209.30
64960;BMP180;51487;52.266;10.542;2023-01-29T06:03:09;231480.00;;;209.30
64960;BMP180;51487;52.266;10.542;2023-01-29T06:05:37;231480.00;;;209.30
64960;BMP180;51487;52.266;10.542;2023-01-29T06:08:03;231480.00;;;209.30
64960;BMP180;51487;52.266;10.542;2023-01-29T06:10:29;231480.00;;;209.30
64960;BMP180;51487;52.266;10.542;2023-01-29T06:12:55;231480.00;;;209.30
64960;BMP180;51487;52.266;10.542;2023-01-29T06:15:20;231480.00;;;209.30
64960;BMP180;51487;52.266;10.542;2023-01-29T06:17:46;231480.00;;;209.30
64960;BMP180;51487;52.266;10.542;2023-01-29T06:20:12;231480.00;;;209.30
64960;BMP180;51487;52.266;10.542;2023-01-29T06:22:37;231480.00;;;209.30
64960;BMP180;51487;52.266;10.542;2023-01-29T06:25:03;231480.00;;;209.30
64960;BMP180;51487;52.266;10.542;2023-01-29T06:27:29;125759.00;;;209.30
64960;BMP180;51487;52.266;10.542;2023-01-29T06:29:55;231480.00;;;209.30
64960;BMP180;51487;52.266;10.542;2023-01-29T06:32:20;231480.00;;;209.30
64960;BMP180;51487;52.266;10.542;2023-01-29T06:34:46;231480.00;;;209.30
64960;BMP180;51487;52.266;10.542;2023-01-29T06:37:11;231480.00;;;209.30
64960;BMP180;51487;52.266;10.542;2023-01-29T06:39:37;231480.00;;;209.30
64960;BMP180;51487;52.266;10.542;2023-01-29T06:42:02;231480.00;;;209.30
64960;BMP180;51487;52.266;10.542;2023-01-29T06:44:28;231480.00;;;209.30
64960;BMP180;51487;52.266;10.542;2023-01-29T06:46:54;231480.00;;;209.30
64960;BMP180;51487;52.266;10.542;2023-01-29T06:49:19;231480.00;;;209.30
64960;BMP180;51487;52.266;10.542;2023-01-29T06:51:45;231480.00;;;209.30
64960;BMP180;51487;52.266;10.542;2023-01-29T06:54:10;231480.00;;;209.30
64960;BMP180;51487;52.266;10.542;2023-01-29T06:56:36;231480.00;;;209.30
64960;BMP180;51487;52.266;10.542;2023-01-29T06:59:01;231476.00;;;209.30
64960;BMP180;51487;52.266;10.542;2023-01-29T07:01:27;231480.00;;;209.30
64960;BMP180;51487;52.266;10.542;2023-01-29T07:03:53;231480.00;;;209.30
64960;BMP180;51487;52.266;10.542;2023-01-29T07:06:18;231480.00;;;209.30
64960;BMP180;51487;52.266;10.542;2023-01-29T07:08:44;231480.00;;;209.30
64960;BMP180;51487;52.266;10.542;2023-01-29T07:11:11;231480.00;;;209.30
64960;BMP180;51487;52.266;10.542;2023-01-29T07:13:36;231480.00;;;209.30
64960;BMP180;51487;52.266;10.542;2023-01-29T07:16:03;231476.00;;;209.30
64960;BMP180;51487;52.266;10.542;2023-01-29T07:18:30;231476.00;;;209.30
64960;BMP180;51487;52.266;10.542;2023-01-29T07:20:56;125759.00;;;209.30
64960;BMP180;51487;52.266;10.542;2023-01-29T07:23:22;231480.00;;;209.30
64960;BMP180;51487;52.266;10.542;2023-01-29T07:25:49;231480.00;;;209.30
64960;BMP180;51487;52.266;10.542;2023-01-29T07:28:18;231480.00;;;209.30
64960;BMP180;51487;52.266;10.542;2023-01-29T07:30:44;231480.00;;;209.30
64960;BMP180;51487;52.266;10.542;2023-01-29T07:33:10;231480.00;;;209.30
64960;BMP180;51487;52.266;10.542;2023-01-29T07:35:41;231480.00;;;209.30
64960;BMP180;51487;52.266;10.542;2023-01-29T07:38:08;231476.00;;;209.30
64960;BMP180;51487;52.266;10.542;2023-01-29T07:40:35;231476.00;;;209.30
64960;BMP180;51487;52.266;10.542;2023-01-29T07:43:04;231480.00;;;209.30
64960;BMP180;51487;52.266;10.542;2023-01-29T07:45:33;231480.00;;;209.30
64960;BMP180;51487;52.266;10.542;2023-01-29T07:48:00;231480.00;;;209.30
64960;BMP180;51487;52.266;10.542;2023-01-29T07:50:26;231480.00;;;209.30
64960;BMP180;51487;52.266;10.542;2023-01-29T07:52:55;231480.00;;;209.30
64960;BMP180;51487;52.266;10.542;2023-01-29T07:55:21;231480.00;;;209.30
64960;BMP180;51487;52.266;10.542;2023-01-29T07:57:47;231480.00;;;209.30
64960;BMP180;51487;52.266;10.542;2023-01-29T08:00:20;231480.00;;;209.30
64960;BMP180;51487;52.266;10.542;2023-01-29T08:02:45;231480.00;;;209.30
64960;BMP180;51487;52.266;10.542;2023-01-29T08:05:11;231480.00;;;209.30
64960;BMP180;51487;52.266;10.542;2023-01-29T08:07:36;231476.00;;;209.30
64960;BMP180;51487;52.266;10.542;2023-01-29T08:10:02;231476.00;;;209.30
64960;BMP180;51487;52.266;10.542;2023-01-29T08:12:28;231476.00;;;209.30
64960;BMP180;51487;52.266;10.542;2023-01-29T08:14:53;231480.00;;;209.30
64960;BMP180;51487;52.266;10.542;2023-01-29T08:17:19;231476.00;;;209.30
64960;BMP180;51487;52.266;10.542;2023-01-29T08:19:44;231476.00;;;209.30
64960;BMP180;51487;52.266;10.542;2023-01-29T08:22:10;231480.00;;;209.30
64960;BMP180;51487;52.266;10.542;2023-01-29T08:24:35;231476.00;;;209.30
64960;BMP180;51487;52.266;10.542;2023-01-29T08:27:01;231480.00;;;209.30
64960;BMP180;51487;52.266;10.542;2023-01-29T08:29:26;231480.00;;;209.30
64960;BMP180;51487;52.266;10.542;2023-01-29T08:31:52;231480.00;;;209.30
64960;BMP180;51487;52.266;10.542;2023-01-29T08:34:17;231476.00;;;209.30
64960;BMP180;51487;52.266;10.542;2023-01-29T08:36:43;231480.00;;;209.30
64960;BMP180;51487;52.266;10.542;2023-01-29T08:39:08;231480.00;;;209.30
64960;BMP180;51487;52.266;10.542;2023-01-29T08:41:34;231480.00;;;209.30
64960;BMP180;51487;52.266;10.542;2023-01-29T08:43:59;231480.00;;;209.30
64960;BMP180;51487;52.266;10.542;2023-01-29T08:46:28;231480.00;;;209.30
64960;BMP180;51487;52.266;10.542;2023-01-29T08:48:54;231476.00;;;209.30
64960;BMP180;51487;52.266;10.542;2023-01-29T08:51:20;231480.00;;;209.30
64960;BMP180;51487;52.266;10.542;2023-01-29T08:53:48;231480.00;;;209.30
64960;BMP180;51487;52.266;10.542;2023-01-29T08:56:13;231480.00;;;209.30
64960;BMP180;51487;52.266;10.542;2023-01-29T08:58:40;231476.00;;;209.30
64960;BMP180;51487;52.266;10.542;2023-01-29T09:01:08;231480.00;;;209.30
64960;BMP180;51487;52.266;10.542;2023-01-29T09:03:34;231480.00;;;209.30
64960;BMP180;51487;52.266;10.542;2023-01-29T09:06:00;231480.00;;;209.30
64960;BMP180;51487;52.266;10.542;2023-01-29T09:08:26;231480.00;;;209.30
64960;BMP180;51487;52.266;10.542;2023-01-29T09:10:52;231480.00;;;209.30
64960;BMP180;51487;52.266;10.542;2023-01-29T09:13:17;231480.00;;;209.30
64960;BMP180;51487;52.266;10.542;2023-01-29T09:15:43;231480.00;;;209.30
64960;BMP180;51487;52.266;10.542;2023-01-29T09:18:08;231480.00;;;209.30
64960;BMP180;51487;52.266;10.542;2023-01-29T09:20:34;231476.00;;;209.30
64960;BMP180;51487;52.266;10.542;2023-01-29T09:23:04;231480.00;;;209.30
64960;BMP180;51487;52.266;10.542;2023-01-29T09:25:30;231476.00;;;209.30
64960;BMP180;51487;52.266;10.542;2023-01-29T09:27:56;231480.00;;;209.30
64960;BMP180;51487;52.266;10.542;2023-01-29T09:30:21;231480.00;;;209.30
64960;BMP180;51487;52.266;10.542;2023-01-29T09:32:47;231480.00;;;209.30
64960;BMP180;51487;52.266;10.542;2023-01-29T09:35:12;231480.00;;;209.30
64960;BMP180;51487;52.266;10.542;2023-01-29T09:37:38;231480.00;;;209.30
64960;BMP180;51487;52.266;10.542;2023-01-29T09:40:04;231480.00;;;209.30
64960;BMP180;51487;52.266;10.542;2023-01-29T09:42:40;231480.00;;;209.30
64960;BMP180;51487;52.266;10.542;2023-01-29T09:45:20;231480.00;;;209.30
64960;BMP180;51487;52.266;10.542;2023-01-29T09:47:52;231480.00;;;209.30
64960;BMP180;51487;52.266;10.542;2023-01-29T09:50:37;231480.00;;;209.30
64960;BMP180;51487;52.266;10.542;2023-01-29T09:56:03;231480.00;;;209.30
64960;BMP180;51487;52.266;10.542;2023-01-29T09:58:36;231476.00;;;209.30
64960;BMP180;51487;52.266;10.542;2023-01-29T10:13:02;231480.00;;;209.30
64960;BMP180;51487;52.266;10.542;2023-01-29T10:21:45;231480.00;;;209.30
64960;BMP180;51487;52.266;10.542;2023-01-29T10:24:38;231480.00;;;209.30
64960;BMP180;51487;52.266;10.542;2023-01-29T10:27:14;231476.00;;;209.30
64960;BMP180;51487;52.266;10.542;2023-01-29T10:29:43;231480.00;;;209.30
64960;BMP180;51487;52.266;10.542;2023-01-29T10:32:22;231476.00;;;209.30
64960;BMP180;51487;52.266;10.542;2023-01-29T10:34:54;231476.00;;;209.30
64960;BMP180;51487;52.266;10.542;2023-01-29T10:37:33;231480.00;;;209.30
64960;BMP180;51487;52.266;10.542;2023-01-29T10:42:54;231476.00;;;209.30
64960;BMP180;51487;52.266;10.542;2023-01-29T10:57:14;231480.00;;;209.30
64960;BMP180;51487;52.266;10.542;2023-01-29T11:00:00;231480.00;;;209.30
64960;BMP180;51487;52.266;10.542;2023-01-29T11:02:35;231476.00;;;209.30
64960;BMP180;51487;52.266;10.542;2023-01-29T11:05:00;231480.00;;;209.30
64960;BMP180;51487;52.266;10.542;2023-01-29T11:07:26;231480.00;;;209.30
64960;BMP180;51487;52.266;10.542;2023-01-29T11:10:02;231480.00;;;209.30
64960;BMP180;51487;52.266;10.542;2023-01-29T11:12:36;231476.00;;;209.30
64960;BMP180;51487;52.266;10.542;2023-01-29T11:17:38;231480.00;;;209.30
64960;BMP180;51487;52.266;10.542;2023-01-29T11:20:28;231480.00;;;209.30
64960;BMP180;51487;52.266;10.542;2023-01-29T11:22:55;231480.00;;;209.30
64960;BMP180;51487;52.266;10.542;2023-01-29T11:25:22;231476.00;;;209.30
64960;BMP180;51487;52.266;10.542;2023-01-29T11:27:53;231476.00;;;209.30
64960;BMP180;51487;52.266;10.542;2023-01-29T11:30:31;231476.00;;;209.30
64960;BMP180;51487;52.266;10.542;2023-01-29T11:33:10;231480.00;;;209.30
64960;BMP180;51487;52.266;10.542;2023-01-29T11:35:43;231480.00;;;209.30
64960;BMP180;51487;52.266;10.542;2023-01-29T11:40:41;231480.00;;;209.30
64960;BMP180;51487;52.266;10.542;2023-01-29T11:45:57;231476.00;;;209.30
64960;BMP180;51487;52.266;10.542;2023-01-29T11:48:41;231480.00;;;209.30
64960;BMP180;51487;52.266;10.542;2023-01-29T11:51:20;231480.00;;;209.30
64960;BMP180;51487;52.266;10.542;2023-01-29T11:53:52;231480.00;;;209.30
64960;BMP180;51487;52.266;10.542;2023-01-29T11:56:28;231476.00;;;209.30
64960;BMP180;51487;52.266;10.542;2023-01-29T11:59:15;231480.00;;;209.30
64960;BMP180;51487;52.266;10.542;2023-01-29T12:02:28;231480.00;;;209.30
64960;BMP180;51487;52.266;10.542;2023-01-29T12:05:06;231480.00;;;209.30
64960;BMP180;51487;52.266;10.542;2023-01-29T12:07:41;231480.00;;;209.30
64960;BMP180;51487;52.266;10.542;2023-01-29T12:15:29;231476.00;;;209.30
64960;BMP180;51487;52.266;10.542;2023-01-29T12:18:24;231480.00;;;209.30
64960;BMP180;51487;52.266;10.542;2023-01-29T12:21:01;231476.00;;;209.30
64960;BMP180;51487;52.266;10.542;2023-01-29T12:23:38;231476.00;;;209.30
64960;BMP180;51487;52.266;10.542;2023-01-29T12:26:17;231480.00;;;209.30
64960;BMP180;51487;52.266;10.542;2023-01-29T12:29:05;231476.00;;;209.30
64960;BMP180;51487;52.266;10.542;2023-01-29T12:34:41;231480.00;;;209.30
64960;BMP180;51487;52.266;10.542;2023-01-29T12:37:16;231480.00;;;209.30
64960;BMP180;51487;52.266;10.542;2023-01-29T12:39:48;231476.00;;;209.30
64960;BMP180;51487;52.266;10.542;2023-01-29T12:42:19;231480.00;;;209.30
64960;BMP180;51487;52.266;10.542;2023-01-29T12:45:06;231480.00;;;209.30
64960;BMP180;51487;52.266;10.542;2023-01-29T12:47:44;231476.00;;;209.30
64960;BMP180;51487;52.266;10.542;2023-01-29T12:50:20;231476.00;;;209.30
64960;BMP180;51487;52.266;10.542;2023-01-29T12:52:51;231480.00;;;209.30
64960;BMP180;51487;52.266;10.542;2023-01-29T12:55:27;231480.00;;;209.30
64960;BMP180;51487;52.266;10.542;2023-01-29T12:58:02;231476.00;;;209.30
64960;BMP180;51487;52.266;10.542;2023-01-29T13:00:37;231480.00;;;209.30
64960;BMP180;51487;52.266;10.542;2023-01-29T13:05:54;231480.00;;;209.30
64960;BMP180;51487;52.266;10.542;2023-01-29T13:11:05;231476.00;;;209.30
64960;BMP180;51487;52.266;10.542;2023-01-29T13:16:20;231480.00;;;209.30
64960;BMP180;51487;52.266;10.542;2023-01-29T13:18:57;231480.00;;;209.30
64960;BMP180;51487;52.266;10.542;2023-01-29T13:21:33;231480.00;;;209.30
64960;BMP180;51487;52.266;10.542;2023-01-29T13:24:06;231480.00;;;209.30
64960;BMP180;51487;52.266;10.542;2023-01-29T13:26:37;231480.00;;;209.30
64960;BMP180;51487;52.266;10.542;2023-01-29T13:29:04;231480.00;;;209.30
64960;BMP180;51487;52.266;10.542;2023-01-29T13:31:34;231476.00;;;209.30
64960;BMP180;51487;52.266;10.542;2023-01-29T13:34:44;231480.00;;;209.30
64960;BMP180;51487;52.266;10.542;2023-01-29T13:37:20;231480.00;;;209.30
64960;BMP180;51487;52.266;10.542;2023-01-29T13:39:49;231480.00;;;209.30
64960;BMP180;51487;52.266;10.542;2023-01-29T13:42:23;231476.00;;;209.30
64960;BMP180;51487;52.266;10.542;2023-01-29T13:45:00;231476.00;;;209.30
64960;BMP180;51487;52.266;10.542;2023-01-29T13:47:33;231480.00;;;209.30
64960;BMP180;51487;52.266;10.542;2023-01-29T13:50:53;231476.00;;;209.30
64960;BMP180;51487;52.266;10.542;2023-01-29T13:53:03;231480.00;;;209.30
64960;BMP180;51487;52.266;10.542;2023-01-29T13:58:02;231480.00;;;209.30
64960;BMP180;51487;52.266;10.542;2023-01-29T14:10:33;231480.00;;;209.30
64960;BMP180;51487;52.266;10.542;2023-01-29T14:18:28;231480.00;;;209.30
64960;BMP180;51487;52.266;10.542;2023-01-29T14:21:06;231480.00;;;209.30
64960;BMP180;51487;52.266;10.542;2023-01-29T14:23:53;231476.00;;;209.30
64960;BMP180;51487;52.266;10.542;2023-01-29T14:31:38;231480.00;;;209.30
64960;BMP180;51487;52.266;10.542;2023-01-29T14:34:46;231480.00;;;209.30
64960;BMP180;51487;52.266;10.542;2023-01-29T14:39:50;231480.00;;;209.30
64960;BMP180;51487;52.266;10.542;2023-01-29T14:48:02;231476.00;;;209.30
64960;BMP180;51487;52.266;10.542;2023-01-29T14:53:21;231480.00;;;209.30
64960;BMP180;51487;52.266;10.542;2023-01-29T14:56:14;231480.00;;;209.30
64960;BMP180;51487;52.266;10.542;2023-01-29T14:58:48;231480.00;;;209.30
64960;BMP180;51487;52.266;10.542;2023-01-29T15:01:42;231480.00;;;209.30
64960;BMP180;51487;52.266;10.542;2023-01-29T15:04:48;231480.00;;;209.30
64960;BMP180;51487;52.266;10.542;2023-01-29T15:07:34;231480.00;;;209.30
64960;BMP180;51487;52.266;10.542;2023-01-29T15:11:11;231480.00;;;209.30
64960;BMP180;51487;52.266;10.542;2023-01-29T15:16:47;231480.00;;;209.30
64960;BMP180;51487;52.266;10.542;2023-01-29T15:19:24;231476.00;;;209.30
64960;BMP180;51487;52.266;10.542;2023-01-29T15:22:19;231480.00;;;209.30
64960;BMP180;51487;52.266;10.542;2023-01-29T15:25:00;231480.00;;;209.30
64960;BMP180;51487;52.266;10.542;2023-01-29T15:27:29;231476.00;;;209.30
64960;BMP180;51487;52.266;10.542;2023-01-29T15:30:00;231480.00;;;209.30
64960;BMP180;51487;52.266;10.542;2023-01-29T15:32:35;231480.00;;;209.30
64960;BMP180;51487;52.266;10.542;2023-01-29T15:35:10;231476.00;;;209.30
64960;BMP180;51487;52.266;10.542;2023-01-29T15:37:56;231480.00;;;209.30
64960;BMP180;51487;52.266;10.542;2023-01-29T15:40:23;231476.00;;;209.30
64960;BMP180;51487;52.266;10.542;2023-01-29T15:42:49;231480.00;;;209.30
64960;BMP180;51487;52.266;10.542;2023-01-29T15:45:22;231480.00;;;209.30
64960;BMP180;51487;52.266;10.542;2023-01-29T15:47:54;231476.00;;;209.30
64960;BMP180;51487;52.266;10.542;2023-01-29T15:50:30;231480.00;;;209.30
64960;BMP180;51487;52.266;10.542;2023-01-29T15:53:00;231480.00;;;209.30
64960;BMP180;51487;52.266;10.542;2023-01-29T15:55:30;231476.00;;;209.30
64960;BMP180;51487;52.266;10.542;2023-01-29T15:57:58;231480.00;;;209.30
64960;BMP180;51487;52.266;10.542;2023-01-29T16:00:26;231476.00;;;209.30
64960;BMP180;51487;52.266;10.542;2023-01-29T16:02:54;231476.00;;;209.30
64960;BMP180;51487;52.266;10.542;2023-01-29T16:05:27;231480.00;;;209.30
64960;BMP180;51487;52.266;10.542;2023-01-29T16:07:55;231480.00;;;209.30
64960;BMP180;51487;52.266;10.542;2023-01-29T16:10:25;231480.00;;;209.30
64960;BMP180;51487;52.266;10.542;2023-01-29T16:12:54;231480.00;;;209.30
64960;BMP180;51487;52.266;10.542;2023-01-29T16:15:34;231480.00;;;209.30